createdAt,value
2016-12-27T00:40:49.019Z,7.05
2016-12-27T00:41:37.948Z,6.87
2016-12-27T00:42:25.079Z,6.81
2016-12-27T00:43:13.823Z,6.81
2016-12-27T00:44:02.124Z,6.75
2016-12-27T00:44:50.863Z,6.78
2016-12-27T00:45:39.791Z,6.77
2016-12-27T00:46:28.162Z,6.77
2016-12-27T00:47:16.666Z,6.75
2016-12-27T00:48:05.430Z,6.78
2016-12-27T00:48:54.304Z,6.82
2016-12-27T00:49:42.845Z,6.79
2016-12-27T00:50:31.372Z,6.79
2016-12-27T00:51:20.080Z,6.79
2016-12-27T00:52:09.124Z,6.78
2016-12-27T00:52:57.877Z,6.7
2016-12-27T00:53:45.940Z,6.78
2016-12-27T00:54:34.949Z,6.72
2016-12-27T00:55:23.928Z,6.78
2016-12-27T00:56:12.180Z,6.81
2016-12-27T00:57:01.123Z,6.77
2016-12-27T00:57:49.882Z,6.87
2016-12-27T00:58:38.133Z,6.95
2016-12-27T00:59:26.943Z,6.85
2016-12-27T01:00:15.534Z,6.89
2016-12-27T01:01:04.547Z,6.87
2016-12-27T01:01:52.951Z,6.96
2016-12-27T01:02:41.723Z,6.92
2016-12-27T01:03:30.098Z,6.99
2016-12-27T01:04:18.993Z,7.02
2016-12-27T01:05:07.533Z,7
2016-12-27T01:05:56.023Z,6.97
2016-12-27T01:06:44.914Z,7.07
2016-12-27T01:07:33.443Z,7.15
2016-12-27T01:08:19.838Z,7.14
2016-12-27T01:09:00.290Z,7.35
2016-12-27T01:09:40.739Z,7.23
2016-12-27T01:10:21.251Z,7.32
2016-12-27T01:11:01.709Z,7.35
2016-12-27T01:11:42.212Z,7.36
2016-12-27T01:12:22.684Z,7.4
2016-12-27T01:13:03.222Z,7.43
2016-12-27T01:13:43.637Z,7.39
2016-12-27T01:14:24.131Z,7.45
2016-12-27T01:15:04.611Z,7.35
2016-12-27T01:15:45.061Z,7.4
2016-12-27T01:16:25.558Z,7.38
2016-12-27T01:17:06.080Z,7.33
2016-12-27T01:17:46.592Z,7.32
2016-12-27T01:18:27.024Z,7.31
2016-12-27T01:19:07.522Z,7.29
2016-12-27T01:19:48.016Z,7.4
2016-12-27T01:20:28.501Z,7.29
2016-12-27T01:21:08.944Z,7.28
2016-12-27T01:21:49.426Z,7.36
2016-12-27T01:22:29.863Z,7.31
2016-12-27T01:23:10.326Z,7.28
2016-12-27T01:23:50.796Z,7.31
2016-12-27T01:24:31.370Z,7.25
2016-12-27T01:25:11.823Z,7.31
2016-12-27T01:25:52.322Z,7.28
2016-12-27T01:26:32.829Z,7.28
2016-12-27T01:27:13.309Z,7.21
2016-12-27T01:27:53.767Z,7.29
2016-12-27T01:28:34.265Z,7.25
2016-12-27T01:29:14.717Z,7.28
2016-12-27T01:29:55.209Z,7.28
2016-12-27T01:30:35.742Z,7.25
2016-12-27T01:31:16.210Z,7.29
2016-12-27T01:31:56.704Z,7.28
2016-12-27T01:32:37.262Z,7.24
2016-12-27T01:33:17.716Z,7.24
2016-12-27T01:33:58.223Z,7.35
2016-12-27T01:34:38.742Z,7.29
2016-12-27T01:35:19.228Z,7.32
2016-12-27T01:35:59.735Z,7.21
2016-12-27T01:36:40.170Z,7.31
2016-12-27T01:37:20.653Z,7.39
2016-12-27T01:38:01.154Z,7.38
2016-12-27T01:38:41.651Z,7.45
2016-12-27T01:39:22.126Z,7.4
2016-12-27T01:40:02.599Z,7.38
2016-12-27T01:40:43.014Z,7.45
2016-12-27T01:41:23.508Z,7.4
2016-12-27T01:42:03.971Z,7.32
2016-12-27T01:42:44.474Z,7.4
2016-12-27T01:43:24.964Z,7.36
2016-12-27T01:44:05.424Z,7.42
2016-12-27T01:44:45.935Z,7.42
2016-12-27T01:45:26.467Z,7.45
2016-12-27T01:46:06.917Z,7.36
2016-12-27T01:46:47.370Z,7.39
2016-12-27T01:47:27.849Z,7.36
2016-12-27T01:48:08.335Z,7.36
2016-12-27T01:48:48.796Z,7.42
2016-12-27T01:49:29.324Z,7.4
2016-12-27T01:50:09.757Z,7.4
2016-12-27T01:50:50.251Z,7.4
2016-12-27T01:51:30.692Z,7.31
2016-12-27T01:52:11.166Z,7.29
2016-12-27T01:52:51.684Z,7.31
2016-12-27T01:53:32.175Z,7.31
2016-12-27T01:54:12.661Z,7.31
2016-12-27T01:54:53.143Z,7.31
2016-12-27T01:55:33.591Z,7.24
2016-12-27T01:56:14.085Z,7.38
2016-12-27T01:56:54.602Z,7.39
2016-12-27T01:57:35.040Z,7.31
2016-12-27T01:58:15.605Z,7.36
2016-12-27T01:58:56.112Z,7.35
2016-12-27T01:59:36.576Z,7.29
2016-12-27T02:00:17.104Z,7.4
2016-12-27T02:00:57.577Z,7.33
2016-12-27T02:01:38.095Z,7.39
2016-12-27T02:02:18.564Z,7.42
2016-12-27T02:02:59.077Z,7.38
2016-12-27T02:03:39.608Z,7.4
2016-12-27T02:04:20.048Z,7.4
2016-12-27T02:05:00.582Z,7.4
2016-12-27T02:05:41.060Z,7.43
2016-12-27T02:06:21.578Z,7.39
2016-12-27T02:07:02.054Z,7.42
2016-12-27T02:07:42.502Z,7.4
2016-12-27T02:08:23.000Z,7.43
2016-12-27T02:09:03.505Z,7.4
2016-12-27T02:09:43.963Z,7.33
2016-12-27T02:10:25.372Z,7.36
2016-12-27T02:11:05.880Z,7.45
2016-12-27T02:11:46.370Z,7.47
2016-12-27T02:12:26.798Z,7.39
2016-12-27T02:13:07.324Z,7.42
2016-12-27T02:13:47.745Z,7.31
2016-12-27T02:14:28.257Z,7.29
2016-12-27T02:15:08.719Z,7.35
2016-12-27T02:15:49.186Z,7.31
2016-12-27T02:16:29.683Z,7.35
2016-12-27T02:17:10.118Z,7.33
2016-12-27T02:17:50.635Z,7.35
2016-12-27T02:18:31.124Z,7.47
2016-12-27T02:19:11.605Z,7.38
2016-12-27T02:19:52.048Z,7.35
2016-12-27T02:20:32.525Z,7.33
2016-12-27T02:21:13.007Z,7.31
2016-12-27T02:21:53.443Z,7.31
2016-12-27T02:22:33.929Z,7.25
2016-12-27T02:23:14.462Z,7.24
2016-12-27T02:23:54.901Z,7.31
2016-12-27T02:24:35.375Z,7.39
2016-12-27T02:25:15.858Z,7.39
2016-12-27T02:25:56.356Z,7.36
2016-12-27T02:26:36.815Z,7.45
2016-12-27T02:27:17.342Z,7.4
2016-12-27T02:27:57.811Z,7.5
2016-12-27T02:28:38.325Z,7.48
2016-12-27T02:29:18.806Z,7.48
2016-12-27T02:29:59.276Z,7.53
2016-12-27T02:30:39.733Z,7.5
2016-12-27T02:31:20.248Z,7.5
2016-12-27T02:32:00.723Z,7.47
2016-12-27T02:32:41.230Z,7.48
2016-12-27T02:33:21.743Z,7.4
2016-12-27T02:34:02.168Z,7.4
2016-12-27T02:34:42.663Z,7.39
2016-12-27T02:35:23.283Z,7.36
2016-12-27T02:36:03.803Z,7.4
2016-12-27T02:37:59.546Z,7.29
2016-12-27T02:38:48.315Z,7.29
2016-12-27T02:39:36.490Z,7.25
2016-12-27T02:40:25.332Z,7.24
2016-12-27T02:41:13.900Z,7.35
2016-12-27T02:42:02.515Z,7.25
2016-12-27T02:42:51.718Z,7.25
2016-12-27T02:43:40.309Z,7.29
2016-12-27T02:44:29.308Z,7.36
2016-12-27T02:45:17.772Z,7.33
2016-12-27T02:46:06.856Z,7.35
2016-12-27T02:46:55.209Z,7.36
2016-12-27T02:47:43.786Z,7.36
2016-12-27T02:48:32.674Z,7.31
2016-12-27T02:49:21.250Z,7.38
2016-12-27T02:50:09.817Z,7.45
2016-12-27T02:50:58.403Z,7.38
2016-12-27T02:51:47.330Z,7.5
2016-12-27T02:52:36.295Z,7.45
2016-12-27T02:53:24.719Z,7.39
2016-12-27T02:54:13.082Z,7.4
2016-12-27T02:55:01.899Z,7.32
2016-12-27T02:55:50.898Z,7.42
2016-12-27T02:56:39.720Z,7.38
2016-12-27T02:57:29.008Z,7.42
2016-12-27T02:58:16.830Z,7.36
2016-12-27T02:59:05.530Z,7.45
2016-12-27T02:59:54.025Z,7.4
2016-12-27T03:00:43.142Z,7.5
2016-12-27T03:01:31.918Z,7.42
2016-12-27T03:02:20.248Z,7.43
2016-12-27T03:03:09.172Z,7.45
2016-12-27T03:03:57.501Z,7.5
2016-12-27T03:04:46.807Z,7.6
2016-12-27T03:05:34.900Z,7.66
2016-12-27T03:06:23.839Z,7.63
2016-12-27T03:07:12.779Z,7.66
2016-12-27T03:08:01.153Z,7.6
2016-12-27T03:08:49.917Z,7.61
2016-12-27T03:09:38.498Z,7.66
2016-12-27T03:10:27.749Z,7.66
2016-12-27T03:11:15.913Z,7.67
2016-12-27T03:12:04.931Z,7.6
2016-12-27T03:12:53.491Z,7.48
2016-12-27T03:13:42.460Z,7.48
2016-12-27T03:14:30.940Z,7.35
2016-12-27T03:15:19.805Z,7.28
2016-12-27T03:16:08.629Z,7.23
2016-12-27T03:16:56.958Z,7.18
2016-12-27T03:17:46.173Z,7.03
2016-12-27T03:18:34.685Z,7.03
2016-12-27T03:19:22.884Z,7.02
2016-12-27T03:20:11.851Z,6.92
2016-12-27T03:21:00.243Z,6.96
2016-12-27T03:21:49.496Z,6.89
2016-12-27T03:22:37.928Z,6.89
2016-12-27T03:23:27.206Z,6.84
2016-12-27T03:24:15.863Z,6.85
2016-12-27T03:25:04.296Z,6.84
2016-12-27T03:25:52.669Z,6.88
2016-12-27T03:26:41.778Z,6.89
2016-12-27T03:27:30.014Z,6.87
2016-12-27T03:28:19.000Z,6.75
2016-12-27T03:29:08.117Z,6.78
2016-12-27T03:29:56.807Z,6.74
2016-12-27T03:30:45.640Z,6.77
2016-12-27T03:31:33.947Z,6.78
2016-12-27T03:32:22.784Z,6.79
2016-12-27T03:33:11.383Z,6.84
2016-12-27T03:33:59.928Z,6.78
2016-12-27T03:34:48.788Z,6.77
2016-12-27T03:35:37.781Z,6.77
2016-12-27T03:36:26.397Z,6.79
2016-12-27T03:37:15.124Z,6.81
2016-12-27T03:38:03.988Z,6.85
2016-12-27T03:38:52.335Z,6.79
2016-12-27T03:39:38.874Z,6.81
2016-12-27T03:40:19.125Z,6.88
2016-12-27T03:40:59.597Z,6.81
2016-12-27T03:41:40.109Z,6.89
2016-12-27T03:42:21.531Z,6.82
2016-12-27T03:43:02.011Z,6.87
2016-12-27T03:43:42.512Z,6.96
2016-12-27T03:44:22.957Z,6.97
2016-12-27T03:45:03.399Z,7.06
2016-12-27T03:45:43.908Z,7.02
2016-12-27T03:46:24.362Z,7.05
2016-12-27T03:47:04.834Z,7.14
2016-12-27T03:47:45.390Z,7.15
2016-12-27T03:48:25.852Z,7.15
2016-12-27T03:49:06.360Z,7.11
2016-12-27T03:49:46.789Z,7.17
2016-12-27T03:50:27.278Z,7.15
2016-12-27T03:51:07.805Z,7.17
2016-12-27T03:51:48.245Z,7.17
2016-12-27T03:52:28.732Z,7.13
2016-12-27T03:53:09.185Z,7.1
2016-12-27T03:53:49.706Z,7.15
2016-12-27T03:54:30.132Z,7.13
2016-12-27T03:55:10.629Z,7.17
2016-12-27T03:55:51.140Z,7.05
2016-12-27T03:56:31.591Z,7.11
2016-12-27T03:57:12.152Z,7.11
2016-12-27T03:57:52.626Z,7.13
2016-12-27T03:58:33.099Z,7.15
2016-12-27T03:59:13.577Z,7.13
2016-12-27T03:59:54.074Z,7.13
2016-12-27T04:00:34.499Z,7.02
2016-12-27T04:01:14.970Z,7
2016-12-27T04:01:55.462Z,7.03
2016-12-27T04:02:35.900Z,7.03
2016-12-27T04:03:16.484Z,7
2016-12-27T04:03:56.956Z,6.99
2016-12-27T04:04:37.419Z,7.02
2016-12-27T04:05:17.862Z,7.06
2016-12-27T04:05:58.362Z,7
2016-12-27T04:06:38.766Z,7.18
2016-12-27T04:07:19.298Z,7.05
2016-12-27T04:07:59.724Z,7.11
2016-12-27T04:08:40.238Z,7.15
2016-12-27T04:09:20.699Z,7.14
2016-12-27T04:10:01.194Z,7.23
2016-12-27T04:10:41.633Z,7.23
2016-12-27T04:11:22.315Z,7.14
2016-12-27T04:12:02.758Z,7.13
2016-12-27T04:12:43.215Z,7.13
2016-12-27T04:13:23.731Z,7.14
2016-12-27T04:14:04.194Z,7.2
2016-12-27T04:14:44.674Z,7.15
2016-12-27T04:15:25.331Z,7.15
2016-12-27T04:16:05.734Z,7.07
2016-12-27T04:16:46.204Z,7.15
2016-12-27T04:17:26.697Z,7.15
2016-12-27T04:18:07.194Z,7.15
2016-12-27T04:18:47.644Z,7.17
2016-12-27T04:19:28.149Z,7.18
2016-12-27T04:20:08.600Z,7.17
2016-12-27T04:20:49.103Z,7.23
2016-12-27T04:21:29.608Z,7.17
2016-12-27T04:22:10.016Z,7.24
2016-12-27T04:22:50.577Z,7.29
2016-12-27T04:23:30.989Z,7.32
2016-12-27T04:24:11.469Z,7.28
2016-12-27T04:24:51.976Z,7.24
2016-12-27T04:25:32.449Z,7.31
2016-12-27T04:26:12.967Z,7.28
2016-12-27T04:26:53.371Z,7.28
2016-12-27T04:27:33.859Z,7.36
2016-12-27T04:28:14.353Z,7.39
2016-12-27T04:28:54.779Z,7.39
2016-12-27T04:29:35.230Z,7.29
2016-12-27T04:30:15.705Z,7.38
2016-12-27T04:30:56.259Z,7.35
2016-12-27T04:31:37.391Z,7.4
2016-12-27T04:32:17.858Z,7.42
2016-12-27T04:32:58.364Z,7.39
2016-12-27T04:33:38.813Z,7.42
2016-12-27T04:34:19.299Z,7.42
2016-12-27T04:34:59.793Z,7.39
2016-12-27T04:35:40.284Z,7.39
2016-12-27T04:36:20.710Z,7.38
2016-12-27T04:37:01.221Z,7.4
2016-12-27T04:37:41.677Z,7.38
2016-12-27T04:38:22.107Z,7.36
2016-12-27T04:39:02.622Z,7.39
2016-12-27T04:39:43.110Z,7.45
2016-12-27T04:40:23.599Z,7.39
2016-12-27T04:41:04.178Z,7.38
2016-12-27T04:41:44.684Z,7.29
2016-12-27T04:42:25.129Z,7.36
2016-12-27T04:43:05.619Z,7.33
2016-12-27T04:43:46.135Z,7.25
2016-12-27T04:44:26.602Z,7.25
2016-12-27T04:45:07.048Z,7.23
2016-12-27T04:45:47.509Z,7.31
2016-12-27T04:46:28.000Z,7.32
2016-12-27T04:47:08.493Z,7.28
2016-12-27T04:47:49.015Z,7.2
2016-12-27T04:48:29.447Z,7.28
2016-12-27T04:49:09.907Z,7.25
2016-12-27T04:49:50.402Z,7.14
2016-12-27T04:50:30.858Z,7.15
2016-12-27T04:51:11.413Z,7.13
2016-12-27T04:51:51.926Z,7.17
2016-12-27T04:52:32.420Z,7.11
2016-12-27T04:54:23.414Z,7.02
2016-12-27T04:55:12.100Z,6.97
2016-12-27T04:56:00.212Z,7.02
2016-12-27T04:56:49.348Z,7.13
2016-12-27T04:57:37.834Z,7.1
2016-12-27T04:58:26.714Z,6.97
2016-12-27T04:59:15.018Z,7.03
2016-12-27T05:00:03.905Z,7.02
2016-12-27T05:00:52.522Z,6.99
2016-12-27T05:01:40.287Z,7.03
2016-12-27T05:02:28.654Z,7.02
2016-12-27T05:03:17.444Z,6.99
2016-12-27T05:04:06.662Z,7
2016-12-27T05:04:55.634Z,7.11
2016-12-27T05:05:44.227Z,7.14
2016-12-27T05:06:33.162Z,7.11
2016-12-27T05:07:21.517Z,7.18
2016-12-27T05:08:10.525Z,7.14
2016-12-27T05:08:58.996Z,7.15
2016-12-27T05:09:47.603Z,7.11
2016-12-27T05:10:36.623Z,7.15
2016-12-27T05:11:25.332Z,6.99
2016-12-27T05:12:14.178Z,6.99
2016-12-27T05:13:02.922Z,7.03
2016-12-27T05:13:51.234Z,7.05
2016-12-27T05:14:39.788Z,7.02
2016-12-27T05:15:28.475Z,7.1
2016-12-27T05:16:16.923Z,7.14
2016-12-27T05:17:06.103Z,7.11
2016-12-27T05:17:54.519Z,7.05
2016-12-27T05:18:43.312Z,7.13
2016-12-27T05:19:32.126Z,7.07
2016-12-27T05:20:21.359Z,7
2016-12-27T05:21:09.249Z,6.97
2016-12-27T05:21:58.262Z,6.99
2016-12-27T05:22:46.792Z,7.03
2016-12-27T05:23:35.267Z,6.97
2016-12-27T05:24:23.960Z,7.13
2016-12-27T05:25:12.640Z,7.07
2016-12-27T05:26:01.330Z,7.07
2016-12-27T05:26:50.394Z,7.03
2016-12-27T05:27:39.163Z,7.06
2016-12-27T05:28:27.703Z,7.06
2016-12-27T05:29:15.927Z,6.97
2016-12-27T05:30:05.177Z,7.02
2016-12-27T05:30:53.338Z,7.14
2016-12-27T05:31:42.487Z,7.07
2016-12-27T05:32:31.135Z,7.13
2016-12-27T05:33:19.449Z,7.15
2016-12-27T05:34:08.622Z,7.11
2016-12-27T05:34:57.230Z,7.18
2016-12-27T05:35:46.105Z,7.14
2016-12-27T05:36:34.695Z,7.14
2016-12-27T05:37:23.314Z,6.97
2016-12-27T05:38:12.196Z,7.14
2016-12-27T05:39:00.387Z,7.13
2016-12-27T05:39:50.220Z,7.15
2016-12-27T05:40:38.743Z,7.11
2016-12-27T05:41:27.132Z,7.14
2016-12-27T05:42:16.217Z,7.15
2016-12-27T05:43:04.478Z,7
2016-12-27T05:43:52.972Z,7.02
2016-12-27T05:44:41.831Z,6.99
2016-12-27T05:45:30.390Z,6.99
2016-12-27T05:46:19.088Z,7.03
2016-12-27T05:47:07.914Z,7.07
2016-12-27T05:47:56.490Z,6.99
2016-12-27T05:48:45.394Z,7.05
2016-12-27T05:49:34.102Z,7.02
2016-12-27T05:50:22.508Z,7.05
2016-12-27T05:51:11.358Z,6.99
2016-12-27T05:52:00.270Z,6.97
2016-12-27T05:52:48.899Z,7.06
2016-12-27T05:53:37.818Z,7.02
2016-12-27T05:54:26.557Z,7.1
2016-12-27T05:55:14.973Z,7.18
2016-12-27T05:56:03.731Z,7.15
2016-12-27T05:56:52.329Z,7.13
2016-12-27T05:57:41.115Z,7.14
2016-12-27T05:58:29.501Z,7.1
2016-12-27T05:59:18.283Z,7.18
2016-12-27T06:00:06.798Z,7.17
2016-12-27T06:00:55.839Z,7.15
2016-12-27T06:01:44.297Z,7.13
2016-12-27T06:02:33.135Z,7.11
2016-12-27T06:03:21.842Z,7.14
2016-12-27T06:04:10.710Z,7.11
2016-12-27T06:04:59.170Z,7.14
2016-12-27T06:05:47.903Z,7.14
2016-12-27T06:06:36.391Z,7.17
2016-12-27T06:07:25.218Z,7.17
2016-12-27T06:08:13.756Z,7.23
2016-12-27T06:09:02.889Z,7.17
2016-12-27T06:09:51.332Z,7.1
2016-12-27T06:10:39.883Z,7.11
2016-12-27T06:11:29.302Z,7.18
2016-12-27T06:12:18.170Z,7.13
2016-12-27T06:13:06.432Z,7.11
2016-12-27T06:13:55.291Z,7.11
2016-12-27T06:14:43.799Z,7.07
2016-12-27T06:15:32.720Z,7.18
2016-12-27T06:16:21.464Z,7.11
2016-12-27T06:17:10.261Z,7.14
2016-12-27T06:17:59.220Z,7.11
2016-12-27T06:18:47.316Z,7.11
2016-12-27T06:19:36.233Z,7.06
2016-12-27T06:20:24.644Z,7.14
2016-12-27T06:21:13.893Z,7.11
2016-12-27T06:22:02.332Z,7.13
2016-12-27T06:22:50.979Z,7.02
2016-12-27T06:23:40.168Z,7.03
2016-12-27T06:24:28.476Z,6.99
2016-12-27T06:25:17.302Z,7.02
2016-12-27T06:26:06.791Z,6.99
2016-12-27T06:26:55.002Z,7.03
2016-12-27T06:27:41.472Z,7
2016-12-27T06:28:21.966Z,6.99
2016-12-27T06:29:02.403Z,7
2016-12-27T06:29:42.907Z,6.96
2016-12-27T06:30:23.334Z,6.97
2016-12-27T06:31:03.830Z,6.99
2016-12-27T06:31:44.324Z,6.92
2016-12-27T06:32:24.786Z,7
2016-12-27T06:33:05.294Z,6.95
2016-12-27T06:33:45.783Z,6.97
2016-12-27T06:34:26.226Z,7.06
2016-12-27T06:35:06.724Z,7.03
2016-12-27T06:35:47.247Z,7.02
2016-12-27T06:36:27.716Z,7.03
2016-12-27T06:37:08.193Z,7
2016-12-27T06:37:48.684Z,7.02
2016-12-27T06:38:29.182Z,7.02
2016-12-27T06:39:09.714Z,6.96
2016-12-27T06:39:50.200Z,7.02
2016-12-27T06:40:30.643Z,6.97
2016-12-27T06:41:11.159Z,6.97
2016-12-27T06:41:51.548Z,7.07
2016-12-27T06:42:32.019Z,7
2016-12-27T06:43:12.535Z,7.02
2016-12-27T06:43:53.036Z,7.02
2016-12-27T06:44:33.523Z,7.03
2016-12-27T06:45:14.644Z,7.02
2016-12-27T06:45:55.119Z,6.99
2016-12-27T06:46:35.571Z,6.97
2016-12-27T06:47:16.071Z,7.03
2016-12-27T06:47:56.571Z,7.05
2016-12-27T06:48:37.086Z,6.97
2016-12-27T06:49:17.541Z,7
2016-12-27T06:49:58.063Z,7.02
2016-12-27T06:50:38.452Z,7
2016-12-27T06:51:18.962Z,7.05
2016-12-27T06:51:59.455Z,6.99
2016-12-27T06:52:39.939Z,7.02
2016-12-27T06:53:20.475Z,7.03
2016-12-27T06:54:00.934Z,6.99
2016-12-27T06:54:41.451Z,7.03
2016-12-27T06:55:21.891Z,7
2016-12-27T06:56:02.425Z,6.93
2016-12-27T06:56:42.830Z,6.97
2016-12-27T06:57:23.429Z,7.02
2016-12-27T06:58:03.763Z,6.89
2016-12-27T06:58:44.250Z,6.88
2016-12-27T06:59:24.697Z,6.95
2016-12-27T07:00:05.276Z,6.92
2016-12-27T07:00:45.720Z,6.88
2016-12-27T07:01:26.225Z,6.93
2016-12-27T07:02:06.738Z,6.92
2016-12-27T07:02:47.197Z,6.95
2016-12-27T07:03:27.766Z,6.96
2016-12-27T07:04:08.281Z,7
2016-12-27T07:04:49.002Z,6.97
2016-12-27T07:05:29.478Z,6.92
2016-12-27T07:06:10.044Z,7.02
2016-12-27T07:06:50.415Z,6.97
2016-12-27T07:07:30.931Z,7
2016-12-27T07:08:11.465Z,6.88
2016-12-27T07:08:51.920Z,6.95
2016-12-27T07:09:32.449Z,6.99
2016-12-27T07:10:12.856Z,6.93
2016-12-27T07:10:53.336Z,6.87
2016-12-27T07:11:33.778Z,6.95
2016-12-27T07:12:14.255Z,6.92
2016-12-27T07:12:54.765Z,7
2016-12-27T07:13:35.249Z,6.95
2016-12-27T07:14:15.791Z,7
2016-12-27T07:14:56.231Z,6.97
2016-12-27T07:15:36.698Z,6.97
2016-12-27T07:16:17.187Z,6.99
2016-12-27T07:16:57.606Z,7
2016-12-27T07:17:38.111Z,6.89
2016-12-27T07:18:18.585Z,6.99
2016-12-27T07:18:59.007Z,6.95
2016-12-27T07:19:39.529Z,6.95
2016-12-27T07:20:20.004Z,6.89
2016-12-27T07:21:00.534Z,6.87
2016-12-27T07:21:40.986Z,6.92
2016-12-27T07:22:21.469Z,6.92
2016-12-27T07:23:01.892Z,6.95
2016-12-27T07:23:42.365Z,6.93
2016-12-27T07:24:23.745Z,6.84
2016-12-27T07:25:04.186Z,6.92
2016-12-27T07:25:44.671Z,6.88
2016-12-27T07:26:25.163Z,6.87
2016-12-27T07:27:05.630Z,6.93
2016-12-27T07:27:46.160Z,6.88
2016-12-27T07:28:26.609Z,6.89
2016-12-27T07:29:07.073Z,6.89
2016-12-27T07:29:47.590Z,6.92
2016-12-27T07:30:28.041Z,6.95
2016-12-27T07:31:08.527Z,6.95
2016-12-27T07:31:49.006Z,6.85
2016-12-27T07:32:29.472Z,6.81
2016-12-27T07:33:10.015Z,6.92
2016-12-27T07:33:50.475Z,6.93
2016-12-27T07:34:30.983Z,6.89
2016-12-27T07:35:11.507Z,6.92
2016-12-27T07:35:51.897Z,6.89
2016-12-27T07:36:32.322Z,6.96
2016-12-27T07:37:12.791Z,7
2016-12-27T07:37:53.307Z,6.88
2016-12-27T07:38:33.858Z,6.92
2016-12-27T07:39:14.292Z,6.93
2016-12-27T07:39:54.725Z,6.93
2016-12-27T07:40:35.301Z,6.92
2016-12-27T07:41:15.753Z,6.87
2016-12-27T07:41:56.220Z,6.96
2016-12-27T07:42:36.729Z,6.87
2016-12-27T07:43:17.179Z,6.81
2016-12-27T07:43:57.651Z,6.85
2016-12-27T07:44:38.133Z,6.85
2016-12-27T07:45:18.662Z,6.82
2016-12-27T07:45:59.104Z,6.85
2016-12-27T07:46:39.574Z,6.89
2016-12-27T07:47:20.076Z,6.78
2016-12-27T07:48:00.539Z,6.75
2016-12-27T07:48:41.006Z,6.87
2016-12-27T07:49:21.559Z,6.78
2016-12-27T07:50:02.010Z,6.79
2016-12-27T07:50:42.478Z,6.82
2016-12-27T07:51:22.968Z,6.84
2016-12-27T07:52:03.409Z,6.78
2016-12-27T07:52:43.885Z,6.7
2016-12-27T07:53:24.367Z,6.69
2016-12-27T07:54:04.848Z,6.74
2016-12-27T07:54:45.333Z,6.78
2016-12-27T07:55:25.824Z,6.72
2016-12-27T07:56:06.280Z,6.7
2016-12-27T07:56:46.847Z,6.67
2016-12-27T07:57:27.329Z,6.64
2016-12-27T07:58:07.757Z,6.72
2016-12-27T07:58:48.264Z,6.7
2016-12-27T07:59:28.743Z,6.77
2016-12-27T08:00:09.169Z,6.84
2016-12-27T08:00:49.705Z,6.77
2016-12-27T08:01:30.801Z,6.82
2016-12-27T08:02:11.344Z,6.74
2016-12-27T08:02:51.775Z,6.82
2016-12-27T08:03:32.263Z,6.81
2016-12-27T08:04:12.765Z,6.84
2016-12-27T08:04:53.196Z,6.81
2016-12-27T08:05:33.721Z,6.85
2016-12-27T08:06:14.211Z,6.89
2016-12-27T08:06:54.642Z,6.82
2016-12-27T08:07:35.108Z,6.88
2016-12-27T08:08:15.612Z,6.87
2016-12-27T08:08:56.040Z,6.87
2016-12-27T08:09:36.533Z,6.84
2016-12-27T08:10:17.019Z,6.87
2016-12-27T08:10:57.489Z,6.82
2016-12-27T08:11:37.992Z,6.85
2016-12-27T08:12:18.526Z,6.89
2016-12-27T08:12:59.111Z,6.85
2016-12-27T08:13:39.584Z,6.89
2016-12-27T08:14:20.081Z,6.88
2016-12-27T08:15:00.513Z,6.85
2016-12-27T08:15:41.006Z,6.84
2016-12-27T08:16:21.443Z,6.95
2016-12-27T08:17:01.995Z,6.82
2016-12-27T08:17:42.427Z,6.82
2016-12-27T08:18:22.944Z,6.87
2016-12-27T08:19:03.435Z,6.97
2016-12-27T08:19:43.906Z,6.87
2016-12-27T08:20:24.400Z,6.92
2016-12-27T08:21:04.957Z,6.96
2016-12-27T08:21:45.400Z,6.99
2016-12-27T08:22:25.889Z,6.88
2016-12-27T08:23:06.387Z,6.88
2016-12-27T08:23:46.885Z,6.92
2016-12-27T08:24:27.389Z,6.92
2016-12-27T08:25:07.883Z,6.88
2016-12-27T08:25:48.371Z,6.95
2016-12-27T08:26:28.844Z,6.88
2016-12-27T08:27:09.321Z,6.89
2016-12-27T08:27:49.851Z,6.87
2016-12-27T08:28:30.330Z,6.93
2016-12-27T08:29:10.827Z,6.95
2016-12-27T08:29:51.317Z,6.92
2016-12-27T08:30:31.871Z,7
2016-12-27T08:31:12.381Z,7.02
2016-12-27T08:31:52.875Z,7
2016-12-27T08:32:33.361Z,7.06
2016-12-27T08:33:14.637Z,7.02
2016-12-27T08:33:55.067Z,7.02
2016-12-27T08:34:35.631Z,7.07
2016-12-27T08:35:16.100Z,7.17
2016-12-27T08:35:56.599Z,7.1
2016-12-27T08:36:37.115Z,7.13
2016-12-27T08:37:17.553Z,7.11
2016-12-27T08:37:58.042Z,7.15
2016-12-27T08:38:38.562Z,7.17
2016-12-27T08:39:19.048Z,7.13
2016-12-27T08:40:00.378Z,7
2016-12-27T08:40:40.845Z,6.96
2016-12-27T08:41:21.356Z,7
2016-12-27T08:42:01.876Z,7.02
2016-12-27T08:42:42.406Z,7
2016-12-27T08:43:22.820Z,7
2016-12-27T08:44:03.305Z,6.97
2016-12-27T08:44:43.989Z,7.02
2016-12-27T08:45:24.521Z,6.99
2016-12-27T08:46:04.968Z,6.93
2016-12-27T08:46:45.452Z,6.99
2016-12-27T08:47:25.945Z,6.92
2016-12-27T08:48:06.394Z,6.89
2016-12-27T08:48:46.918Z,6.88
2016-12-27T08:49:27.402Z,6.88
2016-12-27T08:50:07.971Z,6.89
2016-12-27T08:50:48.458Z,6.96
2016-12-27T08:53:08.599Z,6.87
2016-12-27T08:53:56.847Z,6.89
2016-12-27T08:54:45.803Z,6.93
2016-12-27T08:55:34.536Z,6.95
2016-12-27T08:56:23.389Z,6.89
2016-12-27T08:57:12.194Z,7.02
2016-12-27T08:58:01.153Z,7.03
2016-12-27T08:58:50.113Z,7.03
2016-12-27T08:59:38.361Z,6.97
2016-12-27T09:00:27.866Z,6.97
2016-12-27T09:01:16.591Z,6.93
2016-12-27T09:02:05.253Z,6.95
2016-12-27T09:02:54.329Z,6.97
2016-12-27T09:03:43.145Z,7.02
2016-12-27T09:04:32.137Z,6.97
2016-12-27T09:05:20.588Z,6.93
2016-12-27T09:06:08.722Z,6.93
2016-12-27T09:06:50.544Z,6.88
2016-12-27T09:07:31.090Z,6.89
2016-12-27T09:08:11.698Z,6.93
2016-12-27T09:08:52.181Z,6.92
2016-12-27T09:09:32.853Z,6.95
2016-12-27T09:11:22.456Z,6.96
2016-12-27T09:12:10.950Z,6.88
2016-12-27T09:12:59.723Z,6.95
2016-12-27T09:13:47.899Z,6.95
2016-12-27T09:14:33.196Z,6.89
2016-12-27T09:15:21.890Z,6.96
2016-12-27T09:16:10.691Z,7.02
2016-12-27T09:16:59.164Z,7.02
2016-12-27T09:17:45.684Z,7
2016-12-27T09:18:26.155Z,7.02
2016-12-27T09:19:06.621Z,7.02
2016-12-27T09:19:47.117Z,7.06
2016-12-27T09:20:27.581Z,6.99
2016-12-27T09:21:08.046Z,7
2016-12-27T09:21:48.549Z,7.02
2016-12-27T09:22:29.062Z,7.02
2016-12-27T09:23:09.476Z,7.02
2016-12-27T09:23:49.953Z,7.07
2016-12-27T09:24:30.385Z,7.03
2016-12-27T09:25:10.859Z,6.97
2016-12-27T09:25:51.353Z,7.03
2016-12-27T09:26:31.869Z,7.11
2016-12-27T09:27:12.518Z,7.1
2016-12-27T09:27:53.005Z,7.11
2016-12-27T09:28:33.461Z,7.11
2016-12-27T09:29:13.982Z,7.14
2016-12-27T09:29:54.432Z,7.15
2016-12-27T09:30:34.914Z,7.06
2016-12-27T09:31:15.386Z,7.24
2016-12-27T09:31:55.869Z,7.28
2016-12-27T09:32:36.379Z,7.23
2016-12-27T09:33:16.892Z,7.25
2016-12-27T09:33:57.350Z,7.24
2016-12-27T09:34:37.852Z,7.29
2016-12-27T09:35:18.339Z,7.31
2016-12-27T09:35:58.827Z,7.25
2016-12-27T09:36:39.329Z,7.31
2016-12-27T09:37:19.823Z,7.33
2016-12-27T09:38:00.268Z,7.39
2016-12-27T09:38:40.755Z,7.33
2016-12-27T09:39:21.259Z,7.33
2016-12-27T09:40:01.772Z,7.38
2016-12-27T09:40:42.225Z,7.42
2016-12-27T09:41:22.778Z,7.35
2016-12-27T09:42:03.247Z,7.42
2016-12-27T09:42:43.735Z,7.45
2016-12-27T09:43:24.235Z,7.42
2016-12-27T09:44:04.734Z,7.53
2016-12-27T09:44:45.213Z,7.45
2016-12-27T09:45:25.748Z,7.48
2016-12-27T09:46:06.210Z,7.47
2016-12-27T09:46:46.724Z,7.47
2016-12-27T09:47:27.186Z,7.51
2016-12-27T09:49:20.476Z,7.47
2016-12-27T09:50:02.212Z,7.5
2016-12-27T09:50:42.956Z,7.51
2016-12-27T09:51:23.449Z,7.56
2016-12-27T09:52:03.928Z,7.6
2016-12-27T09:52:44.429Z,7.5
2016-12-27T09:53:24.913Z,7.6
2016-12-27T09:54:05.398Z,7.61
2016-12-27T09:54:45.900Z,7.6
2016-12-27T09:55:26.413Z,7.6
2016-12-27T09:56:06.901Z,7.63
2016-12-27T09:56:47.372Z,7.66
2016-12-27T09:57:27.842Z,7.66
2016-12-27T09:58:08.323Z,7.61
2016-12-27T09:58:48.797Z,7.67
2016-12-27T09:59:29.283Z,7.67
2016-12-27T10:00:09.761Z,7.7
2016-12-27T10:00:50.226Z,7.72
2016-12-27T10:01:30.713Z,7.79
2016-12-27T10:02:11.173Z,7.85
2016-12-27T10:02:51.659Z,7.8
2016-12-27T10:03:32.150Z,7.97
2016-12-27T10:04:12.642Z,7.91
2016-12-27T10:04:59.934Z,7.88
2016-12-27T10:05:40.432Z,7.95
2016-12-27T10:06:21.074Z,7.95
2016-12-27T10:07:01.576Z,8
2016-12-27T10:07:42.070Z,7.94
2016-12-27T10:08:22.525Z,7.93
2016-12-27T10:09:02.981Z,7.95
2016-12-27T10:09:43.467Z,7.97
2016-12-27T10:10:23.962Z,7.95
2016-12-27T10:11:04.423Z,8.01
2016-12-27T10:11:44.900Z,8.03
2016-12-27T10:12:25.371Z,8.05
2016-12-27T10:13:05.845Z,7.95
2016-12-27T10:13:46.305Z,7.98
2016-12-27T10:14:26.831Z,8.06
2016-12-27T10:15:07.342Z,8
2016-12-27T10:15:47.803Z,8.01
2016-12-27T10:16:28.280Z,7.98
2016-12-27T10:17:08.794Z,8.05
2016-12-27T10:17:49.253Z,8.05
2016-12-27T10:18:29.746Z,7.94
2016-12-27T10:19:10.243Z,8
2016-12-27T10:19:50.687Z,8.05
2016-12-27T10:22:07.025Z,7.94
2016-12-27T10:22:48.566Z,8.03
2016-12-27T10:23:28.770Z,8.03
2016-12-27T10:24:09.254Z,8.06
2016-12-27T10:24:49.725Z,8.09